sensor_id;sensor_type;location;lat;lon;timestamp;P1;durP1;ratioP1;P2;durP2;ratioP2
19942;SDS011;10133;50.956;17.276;2023-01-24T00:00:38;81.30;;;31.70;;
19942;SDS011;10133;50.956;17.276;2023-01-24T00:03:05;83.57;;;32.60;;
19942;SDS011;10133;50.956;17.276;2023-01-24T00:05:38;75.13;;;30.13;;
19942;SDS011;10133;50.956;17.276;2023-01-24T00:08:06;81.20;;;31.23;;
19942;SDS011;10133;50.956;17.276;2023-01-24T00:10:33;87.60;;;32.07;;
19942;SDS011;10133;50.956;17.276;2023-01-24T00:13:00;81.40;;;31.40;;
19942;SDS011;10133;50.956;17.276;2023-01-24T00:15:27;78.13;;;30.97;;
19942;SDS011;10133;50.956;17.276;2023-01-24T00:17:54;79.77;;;31.00;;
19942;SDS011;10133;50.956;17.276;2023-01-24T00:20:21;76.07;;;29.73;;
19942;SDS011;10133;50.956;17.276;2023-01-24T00:22:48;77.97;;;30.73;;
19942;SDS011;10133;50.956;17.276;2023-01-24T00:25:15;80.33;;;31.73;;
19942;SDS011;10133;50.956;17.276;2023-01-24T00:27:42;84.87;;;31.77;;
19942;SDS011;10133;50.956;17.276;2023-01-24T00:30:09;79.30;;;31.17;;
19942;SDS011;10133;50.956;17.276;2023-01-24T00:32:36;84.03;;;31.93;;
19942;SDS011;10133;50.956;17.276;2023-01-24T00:35:04;86.73;;;32.77;;
19942;SDS011;10133;50.956;17.276;2023-01-24T00:37:31;87.80;;;33.43;;
19942;SDS011;10133;50.956;17.276;2023-01-24T00:39:58;86.37;;;32.83;;
19942;SDS011;10133;50.956;17.276;2023-01-24T00:42:25;84.03;;;31.77;;
19942;SDS011;10133;50.956;17.276;2023-01-24T00:44:52;87.90;;;32.00;;
19942;SDS011;10133;50.956;17.276;2023-01-24T00:47:19;82.00;;;30.70;;
19942;SDS011;10133;50.956;17.276;2023-01-24T00:49:46;87.20;;;32.20;;
19942;SDS011;10133;50.956;17.276;2023-01-24T00:52:13;77.87;;;31.80;;
19942;SDS011;10133;50.956;17.276;2023-01-24T00:54:40;80.90;;;32.17;;
19942;SDS011;10133;50.956;17.276;2023-01-24T00:57:07;85.63;;;33.60;;
19942;SDS011;10133;50.956;17.276;2023-01-24T00:59:34;86.03;;;32.70;;
19942;SDS011;10133;50.956;17.276;2023-01-24T01:02:00;80.50;;;31.30;;
19942;SDS011;10133;50.956;17.276;2023-01-24T01:04:27;82.53;;;33.17;;
19942;SDS011;10133;50.956;17.276;2023-01-24T01:06:54;77.67;;;30.33;;
19942;SDS011;10133;50.956;17.276;2023-01-24T01:09:21;83.00;;;31.70;;
19942;SDS011;10133;50.956;17.276;2023-01-24T01:11:48;80.73;;;31.30;;
19942;SDS011;10133;50.956;17.276;2023-01-24T01:14:15;79.70;;;31.27;;
19942;SDS011;10133;50.956;17.276;2023-01-24T01:16:43;81.87;;;32.63;;
19942;SDS011;10133;50.956;17.276;2023-01-24T01:19:10;82.40;;;32.80;;
19942;SDS011;10133;50.956;17.276;2023-01-24T01:21:37;88.07;;;32.63;;
19942;SDS011;10133;50.956;17.276;2023-01-24T01:24:04;81.27;;;31.93;;
19942;SDS011;10133;50.956;17.276;2023-01-24T01:26:30;78.83;;;31.13;;
19942;SDS011;10133;50.956;17.276;2023-01-24T01:28:57;78.43;;;31.00;;
19942;SDS011;10133;50.956;17.276;2023-01-24T01:31:24;83.70;;;32.10;;
19942;SDS011;10133;50.956;17.276;2023-01-24T01:33:51;75.80;;;31.23;;
19942;SDS011;10133;50.956;17.276;2023-01-24T01:36:18;79.07;;;31.40;;
19942;SDS011;10133;50.956;17.276;2023-01-24T01:38:45;83.63;;;31.33;;
19942;SDS011;10133;50.956;17.276;2023-01-24T01:41:13;76.83;;;31.53;;
19942;SDS011;10133;50.956;17.276;2023-01-24T01:43:40;78.23;;;32.03;;
19942;SDS011;10133;50.956;17.276;2023-01-24T01:46:28;80.07;;;31.10;;
19942;SDS011;10133;50.956;17.276;2023-01-24T01:49:05;82.63;;;32.50;;
19942;SDS011;10133;50.956;17.276;2023-01-24T01:54:13;71.27;;;29.90;;
19942;SDS011;10133;50.956;17.276;2023-01-24T01:56:46;86.40;;;32.67;;
19942;SDS011;10133;50.956;17.276;2023-01-24T01:59:21;72.67;;;30.50;;
19942;SDS011;10133;50.956;17.276;2023-01-24T02:01:52;77.17;;;32.07;;
19942;SDS011;10133;50.956;17.276;2023-01-24T02:04:31;77.20;;;30.70;;
19942;SDS011;10133;50.956;17.276;2023-01-24T02:07:02;77.37;;;31.53;;
19942;SDS011;10133;50.956;17.276;2023-01-24T02:09:40;77.27;;;31.30;;
19942;SDS011;10133;50.956;17.276;2023-01-24T02:12:23;74.33;;;31.27;;
19942;SDS011;10133;50.956;17.276;2023-01-24T02:14:53;77.13;;;30.80;;
19942;SDS011;10133;50.956;17.276;2023-01-24T02:17:42;77.73;;;31.40;;
19942;SDS011;10133;50.956;17.276;2023-01-24T02:28:17;80.93;;;31.70;;
19942;SDS011;10133;50.956;17.276;2023-01-24T02:30:44;88.50;;;33.37;;
19942;SDS011;10133;50.956;17.276;2023-01-24T02:33:15;79.93;;;30.70;;
19942;SDS011;10133;50.956;17.276;2023-01-24T02:35:44;78.77;;;31.90;;
19942;SDS011;10133;50.956;17.276;2023-01-24T02:40:53;82.97;;;34.57;;
19942;SDS011;10133;50.956;17.276;2023-01-24T02:43:27;88.07;;;33.83;;
19942;SDS011;10133;50.956;17.276;2023-01-24T02:45:56;82.47;;;32.30;;
19942;SDS011;10133;50.956;17.276;2023-01-24T02:48:22;85.43;;;33.63;;
19942;SDS011;10133;50.956;17.276;2023-01-24T02:50:49;82.30;;;33.43;;
19942;SDS011;10133;50.956;17.276;2023-01-24T02:53:35;84.53;;;34.50;;
19942;SDS011;10133;50.956;17.276;2023-01-24T02:56:04;81.23;;;32.27;;
19942;SDS011;10133;50.956;17.276;2023-01-24T02:58:51;78.83;;;33.43;;
19942;SDS011;10133;50.956;17.276;2023-01-24T03:01:19;81.70;;;33.73;;
19942;SDS011;10133;50.956;17.276;2023-01-24T03:03:49;85.17;;;32.57;;
19942;SDS011;10133;50.956;17.276;2023-01-24T03:06:17;87.17;;;32.17;;
19942;SDS011;10133;50.956;17.276;2023-01-24T03:08:44;80.57;;;31.13;;
19942;SDS011;10133;50.956;17.276;2023-01-24T03:11:11;80.70;;;32.30;;
19942;SDS011;10133;50.956;17.276;2023-01-24T03:13:39;80.03;;;31.33;;
19942;SDS011;10133;50.956;17.276;2023-01-24T03:16:24;79.67;;;31.13;;
19942;SDS011;10133;50.956;17.276;2023-01-24T03:19:10;80.63;;;32.10;;
19942;SDS011;10133;50.956;17.276;2023-01-24T03:21:56;87.57;;;33.37;;
19942;SDS011;10133;50.956;17.276;2023-01-24T03:24:41;84.27;;;33.93;;
19942;SDS011;10133;50.956;17.276;2023-01-24T03:27:27;81.30;;;32.50;;
19942;SDS011;10133;50.956;17.276;2023-01-24T03:30:13;81.27;;;32.07;;
19942;SDS011;10133;50.956;17.276;2023-01-24T03:32:59;85.10;;;31.77;;
19942;SDS011;10133;50.956;17.276;2023-01-24T03:35:49;90.93;;;32.47;;
19942;SDS011;10133;50.956;17.276;2023-01-24T03:38:23;84.33;;;32.33;;
19942;SDS011;10133;50.956;17.276;2023-01-24T03:41:09;79.13;;;31.57;;
19942;SDS011;10133;50.956;17.276;2023-01-24T03:43:35;85.43;;;33.07;;
19942;SDS011;10133;50.956;17.276;2023-01-24T03:46:02;81.53;;;31.90;;
19942;SDS011;10133;50.956;17.276;2023-01-24T03:48:29;88.87;;;32.63;;
19942;SDS011;10133;50.956;17.276;2023-01-24T03:51:03;81.50;;;32.87;;
19942;SDS011;10133;50.956;17.276;2023-01-24T03:53:49;77.70;;;32.07;;
19942;SDS011;10133;50.956;17.276;2023-01-24T03:56:16;83.90;;;31.27;;
19942;SDS011;10133;50.956;17.276;2023-01-24T03:58:43;82.60;;;30.77;;
19942;SDS011;10133;50.956;17.276;2023-01-24T04:01:10;81.27;;;31.90;;
19942;SDS011;10133;50.956;17.276;2023-01-24T04:03:37;80.67;;;32.50;;
19942;SDS011;10133;50.956;17.276;2023-01-24T04:06:04;76.97;;;31.20;;
19942;SDS011;10133;50.956;17.276;2023-01-24T04:08:31;82.70;;;31.17;;
19942;SDS011;10133;50.956;17.276;2023-01-24T04:10:58;84.30;;;31.50;;
19942;SDS011;10133;50.956;17.276;2023-01-24T04:13:25;80.97;;;32.17;;
19942;SDS011;10133;50.956;17.276;2023-01-24T04:15:52;87.30;;;33.23;;
19942;SDS011;10133;50.956;17.276;2023-01-24T04:18:19;88.73;;;32.93;;
19942;SDS011;10133;50.956;17.276;2023-01-24T04:20:46;88.50;;;32.10;;
19942;SDS011;10133;50.956;17.276;2023-01-24T04:23:12;89.53;;;33.53;;
19942;SDS011;10133;50.956;17.276;2023-01-24T04:25:39;82.87;;;31.83;;
19942;SDS011;10133;50.956;17.276;2023-01-24T04:28:06;86.73;;;33.23;;
19942;SDS011;10133;50.956;17.276;2023-01-24T04:30:33;86.70;;;32.97;;
19942;SDS011;10133;50.956;17.276;2023-01-24T04:33:00;89.73;;;33.87;;
19942;SDS011;10133;50.956;17.276;2023-01-24T04:35:28;83.30;;;32.77;;
19942;SDS011;10133;50.956;17.276;2023-01-24T04:37:59;86.07;;;34.00;;
19942;SDS011;10133;50.956;17.276;2023-01-24T04:40:28;100.67;;;35.73;;
19942;SDS011;10133;50.956;17.276;2023-01-24T04:42:57;91.10;;;32.43;;
19942;SDS011;10133;50.956;17.276;2023-01-24T04:45:25;99.30;;;34.10;;
19942;SDS011;10133;50.956;17.276;2023-01-24T04:47:53;93.93;;;33.73;;
19942;SDS011;10133;50.956;17.276;2023-01-24T04:50:20;93.00;;;35.07;;
19942;SDS011;10133;50.956;17.276;2023-01-24T04:52:47;99.70;;;35.67;;
19942;SDS011;10133;50.956;17.276;2023-01-24T04:55:15;94.17;;;34.80;;
19942;SDS011;10133;50.956;17.276;2023-01-24T04:57:42;93.53;;;33.93;;
19942;SDS011;10133;50.956;17.276;2023-01-24T05:00:09;92.13;;;32.60;;
19942;SDS011;10133;50.956;17.276;2023-01-24T05:02:36;89.30;;;33.10;;
19942;SDS011;10133;50.956;17.276;2023-01-24T05:05:04;91.23;;;33.40;;
19942;SDS011;10133;50.956;17.276;2023-01-24T05:07:32;91.37;;;33.80;;
19942;SDS011;10133;50.956;17.276;2023-01-24T05:09:59;103.43;;;35.27;;
19942;SDS011;10133;50.956;17.276;2023-01-24T05:12:26;93.23;;;32.77;;
19942;SDS011;10133;50.956;17.276;2023-01-24T05:14:52;93.13;;;33.60;;
19942;SDS011;10133;50.956;17.276;2023-01-24T05:17:19;87.80;;;32.90;;
19942;SDS011;10133;50.956;17.276;2023-01-24T05:19:46;82.80;;;33.37;;
19942;SDS011;10133;50.956;17.276;2023-01-24T05:22:13;89.93;;;32.83;;
19942;SDS011;10133;50.956;17.276;2023-01-24T05:24:40;87.83;;;32.63;;
19942;SDS011;10133;50.956;17.276;2023-01-24T05:27:07;95.53;;;34.17;;
19942;SDS011;10133;50.956;17.276;2023-01-24T05:29:34;93.10;;;33.63;;
19942;SDS011;10133;50.956;17.276;2023-01-24T05:32:01;90.37;;;33.10;;
19942;SDS011;10133;50.956;17.276;2023-01-24T05:34:28;86.93;;;30.53;;
19942;SDS011;10133;50.956;17.276;2023-01-24T05:36:55;92.33;;;32.37;;
19942;SDS011;10133;50.956;17.276;2023-01-24T05:39:22;85.00;;;32.10;;
19942;SDS011;10133;50.956;17.276;2023-01-24T05:41:49;85.87;;;32.67;;
19942;SDS011;10133;50.956;17.276;2023-01-24T05:44:16;82.57;;;31.03;;
19942;SDS011;10133;50.956;17.276;2023-01-24T05:46:43;91.00;;;33.10;;
19942;SDS011;10133;50.956;17.276;2023-01-24T05:49:10;91.57;;;33.23;;
19942;SDS011;10133;50.956;17.276;2023-01-24T05:51:37;86.63;;;31.60;;
19942;SDS011;10133;50.956;17.276;2023-01-24T05:54:04;90.93;;;33.37;;
19942;SDS011;10133;50.956;17.276;2023-01-24T05:56:31;86.30;;;32.80;;
19942;SDS011;10133;50.956;17.276;2023-01-24T05:58:58;84.10;;;30.77;;
19942;SDS011;10133;50.956;17.276;2023-01-24T06:01:27;83.27;;;33.20;;
19942;SDS011;10133;50.956;17.276;2023-01-24T06:03:54;88.20;;;33.80;;
19942;SDS011;10133;50.956;17.276;2023-01-24T06:06:22;91.17;;;33.90;;
19942;SDS011;10133;50.956;17.276;2023-01-24T06:08:50;83.53;;;32.10;;
19942;SDS011;10133;50.956;17.276;2023-01-24T06:11:19;89.37;;;33.17;;
19942;SDS011;10133;50.956;17.276;2023-01-24T06:13:47;88.00;;;32.20;;
19942;SDS011;10133;50.956;17.276;2023-01-24T06:16:18;83.93;;;32.33;;
19942;SDS011;10133;50.956;17.276;2023-01-24T06:18:47;80.67;;;32.30;;
19942;SDS011;10133;50.956;17.276;2023-01-24T06:23:47;87.80;;;32.37;;
19942;SDS011;10133;50.956;17.276;2023-01-24T06:26:15;86.93;;;32.03;;
19942;SDS011;10133;50.956;17.276;2023-01-24T06:28:42;87.20;;;31.67;;
19942;SDS011;10133;50.956;17.276;2023-01-24T06:39:31;87.73;;;32.43;;
19942;SDS011;10133;50.956;17.276;2023-01-24T06:41:59;88.37;;;31.47;;
19942;SDS011;10133;50.956;17.276;2023-01-24T06:44:26;98.50;;;35.20;;
19942;SDS011;10133;50.956;17.276;2023-01-24T06:46:54;156.77;;;47.77;;
19942;SDS011;10133;50.956;17.276;2023-01-24T06:49:21;137.27;;;43.33;;
19942;SDS011;10133;50.956;17.276;2023-01-24T06:51:51;113.10;;;39.50;;
19942;SDS011;10133;50.956;17.276;2023-01-24T06:54:18;109.27;;;37.53;;
19942;SDS011;10133;50.956;17.276;2023-01-24T06:56:46;92.27;;;34.60;;
19942;SDS011;10133;50.956;17.276;2023-01-24T06:59:13;95.97;;;33.23;;
19942;SDS011;10133;50.956;17.276;2023-01-24T07:01:40;86.27;;;30.77;;
19942;SDS011;10133;50.956;17.276;2023-01-24T07:04:07;85.83;;;32.30;;
19942;SDS011;10133;50.956;17.276;2023-01-24T07:06:34;84.40;;;31.90;;
19942;SDS011;10133;50.956;17.276;2023-01-24T07:09:01;86.70;;;32.27;;
19942;SDS011;10133;50.956;17.276;2023-01-24T07:11:27;79.60;;;30.67;;
19942;SDS011;10133;50.956;17.276;2023-01-24T07:13:55;88.60;;;32.80;;
19942;SDS011;10133;50.956;17.276;2023-01-24T07:16:22;93.33;;;34.07;;
19942;SDS011;10133;50.956;17.276;2023-01-24T07:18:49;84.93;;;31.37;;
19942;SDS011;10133;50.956;17.276;2023-01-24T07:21:16;81.17;;;31.20;;
19942;SDS011;10133;50.956;17.276;2023-01-24T07:23:47;83.93;;;32.10;;
19942;SDS011;10133;50.956;17.276;2023-01-24T07:26:15;84.63;;;32.53;;
19942;SDS011;10133;50.956;17.276;2023-01-24T07:28:42;85.27;;;32.27;;
19942;SDS011;10133;50.956;17.276;2023-01-24T07:31:10;88.60;;;32.20;;
19942;SDS011;10133;50.956;17.276;2023-01-24T07:33:39;81.63;;;30.37;;
19942;SDS011;10133;50.956;17.276;2023-01-24T07:36:13;92.97;;;35.27;;
19942;SDS011;10133;50.956;17.276;2023-01-24T07:38:40;90.27;;;33.80;;
19942;SDS011;10133;50.956;17.276;2023-01-24T07:41:08;121.13;;;49.63;;
19942;SDS011;10133;50.956;17.276;2023-01-24T07:43:36;106.73;;;42.47;;
19942;SDS011;10133;50.956;17.276;2023-01-24T07:46:03;129.33;;;57.23;;
19942;SDS011;10133;50.956;17.276;2023-01-24T07:48:30;141.67;;;63.17;;
19942;SDS011;10133;50.956;17.276;2023-01-24T07:50:58;171.00;;;69.77;;
19942;SDS011;10133;50.956;17.276;2023-01-24T07:53:26;154.90;;;60.10;;
19942;SDS011;10133;50.956;17.276;2023-01-24T07:55:53;126.60;;;49.30;;
19942;SDS011;10133;50.956;17.276;2023-01-24T07:58:29;162.13;;;61.83;;
19942;SDS011;10133;50.956;17.276;2023-01-24T08:00:57;178.83;;;70.53;;
19942;SDS011;10133;50.956;17.276;2023-01-24T08:03:24;189.67;;;70.47;;
19942;SDS011;10133;50.956;17.276;2023-01-24T08:05:51;146.83;;;53.57;;
19942;SDS011;10133;50.956;17.276;2023-01-24T08:08:18;142.23;;;56.67;;
19942;SDS011;10133;50.956;17.276;2023-01-24T08:10:45;155.13;;;60.10;;
19942;SDS011;10133;50.956;17.276;2023-01-24T08:13:12;124.33;;;48.23;;
19942;SDS011;10133;50.956;17.276;2023-01-24T08:15:39;112.67;;;46.40;;
19942;SDS011;10133;50.956;17.276;2023-01-24T08:18:06;109.33;;;40.90;;
19942;SDS011;10133;50.956;17.276;2023-01-24T08:20:33;109.93;;;39.33;;
19942;SDS011;10133;50.956;17.276;2023-01-24T08:23:00;101.73;;;39.97;;
19942;SDS011;10133;50.956;17.276;2023-01-24T08:25:27;120.93;;;49.20;;
19942;SDS011;10133;50.956;17.276;2023-01-24T08:27:56;127.70;;;51.87;;
19942;SDS011;10133;50.956;17.276;2023-01-24T08:30:23;126.87;;;50.10;;
19942;SDS011;10133;50.956;17.276;2023-01-24T08:33:01;143.90;;;53.90;;
19942;SDS011;10133;50.956;17.276;2023-01-24T08:35:29;161.50;;;61.83;;
19942;SDS011;10133;50.956;17.276;2023-01-24T08:37:57;184.23;;;70.67;;
19942;SDS011;10133;50.956;17.276;2023-01-24T08:40:25;118.60;;;44.33;;
19942;SDS011;10133;50.956;17.276;2023-01-24T08:42:54;106.00;;;38.93;;
19942;SDS011;10133;50.956;17.276;2023-01-24T08:45:25;103.47;;;41.63;;
19942;SDS011;10133;50.956;17.276;2023-01-24T08:47:52;89.90;;;37.63;;
19942;SDS011;10133;50.956;17.276;2023-01-24T08:50:19;87.53;;;35.97;;
19942;SDS011;10133;50.956;17.276;2023-01-24T08:52:47;86.87;;;33.87;;
19942;SDS011;10133;50.956;17.276;2023-01-24T08:55:14;81.13;;;32.87;;
19942;SDS011;10133;50.956;17.276;2023-01-24T08:57:42;85.07;;;32.47;;
19942;SDS011;10133;50.956;17.276;2023-01-24T09:00:09;87.57;;;35.67;;
19942;SDS011;10133;50.956;17.276;2023-01-24T09:02:36;89.70;;;33.90;;
19942;SDS011;10133;50.956;17.276;2023-01-24T09:05:05;91.30;;;35.23;;
19942;SDS011;10133;50.956;17.276;2023-01-24T09:07:33;90.03;;;35.87;;
19942;SDS011;10133;50.956;17.276;2023-01-24T09:10:07;86.60;;;33.67;;
19942;SDS011;10133;50.956;17.276;2023-01-24T09:12:34;92.80;;;34.97;;
19942;SDS011;10133;50.956;17.276;2023-01-24T09:15:01;87.07;;;34.37;;
19942;SDS011;10133;50.956;17.276;2023-01-24T09:17:29;87.13;;;34.23;;
19942;SDS011;10133;50.956;17.276;2023-01-24T09:19:58;86.43;;;34.47;;
19942;SDS011;10133;50.956;17.276;2023-01-24T09:22:26;89.90;;;33.67;;
19942;SDS011;10133;50.956;17.276;2023-01-24T09:24:53;87.17;;;34.00;;
19942;SDS011;10133;50.956;17.276;2023-01-24T09:27:20;85.03;;;33.23;;
19942;SDS011;10133;50.956;17.276;2023-01-24T09:29:47;81.57;;;33.13;;
19942;SDS011;10133;50.956;17.276;2023-01-24T09:32:14;86.30;;;33.33;;
19942;SDS011;10133;50.956;17.276;2023-01-24T09:34:43;80.93;;;32.70;;
19942;SDS011;10133;50.956;17.276;2023-01-24T09:37:16;86.33;;;35.23;;
19942;SDS011;10133;50.956;17.276;2023-01-24T09:39:46;87.90;;;34.70;;
19942;SDS011;10133;50.956;17.276;2023-01-24T09:50:10;85.03;;;34.53;;
19942;SDS011;10133;50.956;17.276;2023-01-24T09:52:45;94.37;;;37.07;;
19942;SDS011;10133;50.956;17.276;2023-01-24T09:55:16;99.93;;;38.67;;
19942;SDS011;10133;50.956;17.276;2023-01-24T10:00:22;88.10;;;34.53;;
19942;SDS011;10133;50.956;17.276;2023-01-24T10:02:57;83.33;;;32.97;;
19942;SDS011;10133;50.956;17.276;2023-01-24T10:05:35;84.70;;;33.87;;
19942;SDS011;10133;50.956;17.276;2023-01-24T10:28:17;83.13;;;33.30;;
19942;SDS011;10133;50.956;17.276;2023-01-24T10:33:26;87.90;;;33.90;;
19942;SDS011;10133;50.956;17.276;2023-01-24T10:38:52;80.97;;;33.60;;
19942;SDS011;10133;50.956;17.276;2023-01-24T10:41:20;81.30;;;31.27;;
19942;SDS011;10133;50.956;17.276;2023-01-24T10:43:51;79.03;;;32.73;;
19942;SDS011;10133;50.956;17.276;2023-01-24T10:46:29;81.27;;;31.77;;
19942;SDS011;10133;50.956;17.276;2023-01-24T10:49:28;89.00;;;34.50;;
19942;SDS011;10133;50.956;17.276;2023-01-24T10:54:48;83.13;;;33.87;;
19942;SDS011;10133;50.956;17.276;2023-01-24T11:00:34;82.77;;;32.53;;
19942;SDS011;10133;50.956;17.276;2023-01-24T11:03:17;84.87;;;32.67;;
19942;SDS011;10133;50.956;17.276;2023-01-24T11:05:52;78.17;;;33.83;;
19942;SDS011;10133;50.956;17.276;2023-01-24T11:08:21;75.83;;;32.40;;
19942;SDS011;10133;50.956;17.276;2023-01-24T11:10:52;82.13;;;32.23;;
19942;SDS011;10133;50.956;17.276;2023-01-24T11:16:04;78.83;;;32.60;;
19942;SDS011;10133;50.956;17.276;2023-01-24T11:18:31;75.73;;;31.73;;
19942;SDS011;10133;50.956;17.276;2023-01-24T11:21:13;89.17;;;34.43;;
19942;SDS011;10133;50.956;17.276;2023-01-24T11:23:42;85.03;;;33.07;;
19942;SDS011;10133;50.956;17.276;2023-01-24T11:26:23;79.23;;;31.67;;
19942;SDS011;10133;50.956;17.276;2023-01-24T11:29:35;82.03;;;32.33;;
19942;SDS011;10133;50.956;17.276;2023-01-24T11:31:43;73.17;;;31.63;;
19942;SDS011;10133;50.956;17.276;2023-01-24T11:45:54;80.07;;;34.53;;
19942;SDS011;10133;50.956;17.276;2023-01-24T11:59:55;77.03;;;32.63;;
19942;SDS011;10133;50.956;17.276;2023-01-24T12:08:56;75.20;;;32.40;;
19942;SDS011;10133;50.956;17.276;2023-01-24T12:11:47;78.00;;;33.40;;
19942;SDS011;10133;50.956;17.276;2023-01-24T12:28:52;106.67;;;44.13;;
19942;SDS011;10133;50.956;17.276;2023-01-24T12:31:30;107.20;;;44.63;;
19942;SDS011;10133;50.956;17.276;2023-01-24T12:40:07;87.07;;;35.60;;
19942;SDS011;10133;50.956;17.276;2023-01-24T12:45:36;81.00;;;35.17;;
19942;SDS011;10133;50.956;17.276;2023-01-24T12:50:49;82.63;;;35.33;;
19942;SDS011;10133;50.956;17.276;2023-01-24T12:53:23;82.30;;;36.47;;
19942;SDS011;10133;50.956;17.276;2023-01-24T12:56:12;87.87;;;36.90;;
19942;SDS011;10133;50.956;17.276;2023-01-24T12:58:44;84.57;;;35.43;;
19942;SDS011;10133;50.956;17.276;2023-01-24T13:04:03;80.40;;;33.43;;
19942;SDS011;10133;50.956;17.276;2023-01-24T13:10:11;75.23;;;32.13;;
19942;SDS011;10133;50.956;17.276;2023-01-24T13:12:42;77.27;;;32.17;;
19942;SDS011;10133;50.956;17.276;2023-01-24T13:15:16;75.30;;;32.80;;
19942;SDS011;10133;50.956;17.276;2023-01-24T13:24:03;77.50;;;34.07;;
19942;SDS011;10133;50.956;17.276;2023-01-24T13:34:52;149.10;;;66.90;;
19942;SDS011;10133;50.956;17.276;2023-01-24T13:37:28;179.43;;;95.87;;
19942;SDS011;10133;50.956;17.276;2023-01-24T13:42:40;210.73;;;105.67;;
19942;SDS011;10133;50.956;17.276;2023-01-24T13:47:56;405.67;;;115.00;;
19942;SDS011;10133;50.956;17.276;2023-01-24T13:50:24;261.70;;;81.17;;
19942;SDS011;10133;50.956;17.276;2023-01-24T13:52:53;284.17;;;85.57;;
19942;SDS011;10133;50.956;17.276;2023-01-24T14:00:46;486.10;;;198.73;;
19942;SDS011;10133;50.956;17.276;2023-01-24T14:13:52;284.27;;;91.20;;
19942;SDS011;10133;50.956;17.276;2023-01-24T14:27:26;248.90;;;91.77;;
19942;SDS011;10133;50.956;17.276;2023-01-24T14:30:00;481.77;;;186.83;;
19942;SDS011;10133;50.956;17.276;2023-01-24T14:37:44;251.90;;;83.77;;
19942;SDS011;10133;50.956;17.276;2023-01-24T14:42:44;251.23;;;89.63;;
19942;SDS011;10133;50.956;17.276;2023-01-24T14:45:15;218.17;;;86.47;;
19942;SDS011;10133;50.956;17.276;2023-01-24T14:47:46;229.67;;;93.00;;
19942;SDS011;10133;50.956;17.276;2023-01-24T14:52:55;218.33;;;94.63;;
19942;SDS011;10133;50.956;17.276;2023-01-24T15:00:53;92.03;;;39.00;;
19942;SDS011;10133;50.956;17.276;2023-01-24T15:03:23;90.10;;;38.70;;
19942;SDS011;10133;50.956;17.276;2023-01-24T15:05:54;93.47;;;42.27;;
19942;SDS011;10133;50.956;17.276;2023-01-24T15:08:25;84.30;;;36.50;;
19942;SDS011;10133;50.956;17.276;2023-01-24T15:14:01;76.80;;;34.40;;
19942;SDS011;10133;50.956;17.276;2023-01-24T15:16:35;79.50;;;35.37;;
19942;SDS011;10133;50.956;17.276;2023-01-24T15:19:18;77.23;;;34.23;;
19942;SDS011;10133;50.956;17.276;2023-01-24T15:21:49;81.37;;;36.97;;
19942;SDS011;10133;50.956;17.276;2023-01-24T15:24:19;76.87;;;34.97;;
19942;SDS011;10133;50.956;17.276;2023-01-24T15:26:51;82.20;;;35.93;;
19942;SDS011;10133;50.956;17.276;2023-01-24T15:34:50;77.67;;;33.20;;
19942;SDS011;10133;50.956;17.276;2023-01-24T15:37:17;77.30;;;33.53;;
19942;SDS011;10133;50.956;17.276;2023-01-24T15:39:44;76.47;;;33.13;;
19942;SDS011;10133;50.956;17.276;2023-01-24T15:42:15;75.47;;;34.30;;
19942;SDS011;10133;50.956;17.276;2023-01-24T15:45:02;77.30;;;32.30;;
19942;SDS011;10133;50.956;17.276;2023-01-24T15:47:30;73.77;;;33.53;;
19942;SDS011;10133;50.956;17.276;2023-01-24T15:55:50;92.27;;;38.40;;
19942;SDS011;10133;50.956;17.276;2023-01-24T15:58:18;114.57;;;47.63;;
19942;SDS011;10133;50.956;17.276;2023-01-24T16:00:55;102.93;;;44.03;;
19942;SDS011;10133;50.956;17.276;2023-01-24T16:03:24;123.57;;;49.83;;
19942;SDS011;10133;50.956;17.276;2023-01-24T16:05:51;114.17;;;44.87;;
19942;SDS011;10133;50.956;17.276;2023-01-24T16:08:18;90.47;;;40.17;;
19942;SDS011;10133;50.956;17.276;2023-01-24T16:10:45;200.87;;;92.33;;
19942;SDS011;10133;50.956;17.276;2023-01-24T16:13:24;230.83;;;115.47;;
19942;SDS011;10133;50.956;17.276;2023-01-24T16:16:07;165.50;;;88.70;;
19942;SDS011;10133;50.956;17.276;2023-01-24T16:18:37;360.03;;;198.03;;
19942;SDS011;10133;50.956;17.276;2023-01-24T16:21:04;246.50;;;99.33;;
19942;SDS011;10133;50.956;17.276;2023-01-24T16:23:31;300.17;;;91.57;;
19942;SDS011;10133;50.956;17.276;2023-01-24T16:25:58;328.40;;;102.03;;
19942;SDS011;10133;50.956;17.276;2023-01-24T16:28:26;591.30;;;198.43;;
19942;SDS011;10133;50.956;17.276;2023-01-24T16:30:59;639.57;;;229.17;;
19942;SDS011;10133;50.956;17.276;2023-01-24T16:33:28;609.10;;;207.20;;
19942;SDS011;10133;50.956;17.276;2023-01-24T16:35:55;483.10;;;162.23;;
19942;SDS011;10133;50.956;17.276;2023-01-24T16:38:22;1012.57;;;395.63;;
19942;SDS011;10133;50.956;17.276;2023-01-24T16:40:49;701.40;;;272.57;;
19942;SDS011;10133;50.956;17.276;2023-01-24T16:43:20;863.47;;;335.60;;
19942;SDS011;10133;50.956;17.276;2023-01-24T16:45:49;544.07;;;180.27;;
19942;SDS011;10133;50.956;17.276;2023-01-24T16:48:17;607.20;;;158.20;;
19942;SDS011;10133;50.956;17.276;2023-01-24T16:50:44;319.80;;;91.40;;
19942;SDS011;10133;50.956;17.276;2023-01-24T16:53:12;354.83;;;114.60;;
19942;SDS011;10133;50.956;17.276;2023-01-24T16:55:40;491.20;;;227.40;;
19942;SDS011;10133;50.956;17.276;2023-01-24T16:58:08;249.10;;;101.13;;
19942;SDS011;10133;50.956;17.276;2023-01-24T17:00:37;150.43;;;59.23;;
19942;SDS011;10133;50.956;17.276;2023-01-24T17:03:04;127.30;;;50.67;;
19942;SDS011;10133;50.956;17.276;2023-01-24T17:05:31;108.27;;;44.07;;
19942;SDS011;10133;50.956;17.276;2023-01-24T17:07:58;296.00;;;93.87;;
19942;SDS011;10133;50.956;17.276;2023-01-24T17:10:25;134.57;;;50.83;;
19942;SDS011;10133;50.956;17.276;2023-01-24T17:12:53;101.17;;;40.37;;
19942;SDS011;10133;50.956;17.276;2023-01-24T17:15:20;92.90;;;38.07;;
19942;SDS011;10133;50.956;17.276;2023-01-24T17:17:47;89.93;;;37.33;;
19942;SDS011;10133;50.956;17.276;2023-01-24T17:20:14;94.90;;;37.70;;
19942;SDS011;10133;50.956;17.276;2023-01-24T17:22:41;289.30;;;73.97;;
19942;SDS011;10133;50.956;17.276;2023-01-24T17:25:08;123.50;;;42.37;;
19942;SDS011;10133;50.956;17.276;2023-01-24T17:27:35;211.70;;;69.73;;
19942;SDS011;10133;50.956;17.276;2023-01-24T17:30:03;140.30;;;50.83;;
19942;SDS011;10133;50.956;17.276;2023-01-24T17:32:34;110.67;;;43.27;;
19942;SDS011;10133;50.956;17.276;2023-01-24T17:35:05;99.63;;;40.17;;
19942;SDS011;10133;50.956;17.276;2023-01-24T17:37:32;90.97;;;40.40;;
19942;SDS011;10133;50.956;17.276;2023-01-24T17:39:59;97.00;;;40.73;;
19942;SDS011;10133;50.956;17.276;2023-01-24T17:42:26;100.53;;;43.83;;
19942;SDS011;10133;50.956;17.276;2023-01-24T17:44:53;95.90;;;40.63;;
19942;SDS011;10133;50.956;17.276;2023-01-24T17:47:20;95.43;;;41.90;;
19942;SDS011;10133;50.956;17.276;2023-01-24T17:49:47;96.73;;;42.03;;